createdAt,value
2024-02-15T00:00:37.723Z,7.79
2024-02-15T00:03:29.772Z,7.80
2024-02-15T00:06:01.767Z,7.82
2024-02-15T00:08:35.173Z,7.81
2024-02-15T00:11:07.329Z,7.81
2024-02-15T00:13:39.304Z,7.79
2024-02-15T00:16:16.153Z,7.79
2024-02-15T00:18:48.286Z,7.77
2024-02-15T00:21:20.351Z,7.80
2024-02-15T00:23:52.417Z,7.80
2024-02-15T00:26:24.297Z,7.79
2024-02-15T00:28:56.212Z,7.77
2024-02-15T00:31:28.138Z,7.77
2024-02-15T00:34:00.853Z,7.76
2024-02-15T00:36:34.682Z,7.75
2024-02-15T00:39:07.366Z,7.74
2024-02-15T00:41:42.876Z,7.75
2024-02-15T00:44:15.588Z,7.73
2024-02-15T00:46:49.128Z,7.70
2024-02-15T00:49:22.252Z,7.67
2024-02-15T00:51:54.500Z,7.64
2024-02-15T00:54:26.988Z,7.62
2024-02-15T00:56:58.918Z,7.64
2024-02-15T00:59:30.876Z,7.66
2024-02-15T01:02:03.547Z,7.67
2024-02-15T01:04:36.562Z,7.66
2024-02-15T01:07:09.477Z,7.64
2024-02-15T01:09:41.611Z,7.60
2024-02-15T01:12:13.620Z,7.60
2024-02-15T01:14:45.569Z,7.59
2024-02-15T01:17:18.335Z,7.54
2024-02-15T01:19:50.351Z,7.49
2024-02-15T01:22:24.992Z,7.47
2024-02-15T01:24:58.275Z,7.47
2024-02-15T01:27:31.447Z,7.44
2024-02-15T01:30:03.591Z,7.40
2024-02-15T01:32:35.593Z,7.37
2024-02-15T01:35:09.058Z,7.38
2024-02-15T01:37:41.013Z,7.36
2024-02-15T01:40:14.312Z,7.32
2024-02-15T01:42:51.037Z,7.28
2024-02-15T01:45:23.455Z,7.27
2024-02-15T01:47:57.074Z,7.28
2024-02-15T01:50:29.863Z,7.28
2024-02-15T01:53:04.534Z,7.27
2024-02-15T01:55:37.124Z,7.26
2024-02-15T01:58:09.590Z,7.29
2024-02-15T02:00:42.050Z,7.28
2024-02-15T02:03:15.629Z,7.29
2024-02-15T02:05:48.522Z,7.28
2024-02-15T02:08:20.476Z,7.29
2024-02-15T02:10:52.703Z,7.33
2024-02-15T02:13:25.911Z,7.36
2024-02-15T02:15:58.265Z,7.37
2024-02-15T02:18:30.269Z,7.38
2024-02-15T02:21:02.377Z,7.38
2024-02-15T02:23:35.313Z,7.42
2024-02-15T02:26:07.362Z,7.45
2024-02-15T02:28:39.509Z,7.50
2024-02-15T02:31:13.133Z,7.49
2024-02-15T02:33:49.840Z,7.47
2024-02-15T02:36:22.867Z,7.46
2024-02-15T02:38:55.717Z,7.48
2024-02-15T02:41:27.595Z,7.51
2024-02-15T02:44:00.657Z,7.52
2024-02-15T02:46:32.570Z,7.52
2024-02-15T02:49:04.619Z,7.52
2024-02-15T02:51:36.714Z,7.54
2024-02-15T02:54:08.712Z,7.56
2024-02-15T02:56:41.070Z,7.58
2024-02-15T02:59:13.937Z,7.57
2024-02-15T03:01:45.852Z,7.56
2024-02-15T03:04:19.374Z,7.57
2024-02-15T03:06:51.345Z,7.61
2024-02-15T03:09:24.107Z,7.63
2024-02-15T03:11:56.079Z,7.62
2024-02-15T03:14:28.321Z,7.63
2024-02-15T03:17:01.051Z,7.62
2024-02-15T03:19:33.380Z,7.64
2024-02-15T03:22:05.495Z,7.64
2024-02-15T03:24:37.567Z,7.64
2024-02-15T03:27:10.449Z,7.63
2024-02-15T03:29:42.392Z,7.65
2024-02-15T03:32:14.723Z,7.64
2024-02-15T03:34:46.736Z,7.64
2024-02-15T03:37:19.509Z,7.64
2024-02-15T03:39:51.393Z,7.64
2024-02-15T03:42:23.307Z,7.63
2024-02-15T03:44:55.861Z,7.65
2024-02-15T03:47:30.492Z,7.65
2024-02-15T03:50:02.585Z,7.63
2024-02-15T03:52:34.748Z,7.64
2024-02-15T03:55:08.922Z,7.65
2024-02-15T03:57:42.612Z,7.68
2024-02-15T04:00:17.026Z,7.69
2024-02-15T04:02:50.584Z,7.68
2024-02-15T04:05:24.553Z,7.67
2024-02-15T04:07:57.281Z,7.68
2024-02-15T04:10:29.168Z,7.70
2024-02-15T04:13:01.065Z,7.72
2024-02-15T04:15:34.996Z,7.70
2024-02-15T04:18:07.636Z,7.69
2024-02-15T04:20:39.556Z,7.67
2024-02-15T04:23:11.762Z,7.68
2024-02-15T04:25:45.492Z,7.69
2024-02-15T04:28:17.430Z,7.67
2024-02-15T04:30:50.091Z,7.66
2024-02-15T04:33:22.209Z,7.65
2024-02-15T04:35:54.184Z,7.69
2024-02-15T04:38:26.790Z,7.71
2024-02-15T04:41:01.562Z,7.72
2024-02-15T04:43:34.395Z,7.71
2024-02-15T04:46:08.770Z,7.69
2024-02-15T04:48:43.153Z,7.72
2024-02-15T04:51:15.659Z,7.75
2024-02-15T04:53:49.526Z,7.77
2024-02-15T04:56:22.376Z,7.78
2024-02-15T04:58:55.918Z,7.78
2024-02-15T05:01:28.172Z,7.80
2024-02-15T05:04:00.126Z,7.83
2024-02-15T05:06:33.700Z,7.86
2024-02-15T05:09:08.820Z,7.86
2024-02-15T05:11:43.036Z,7.84
2024-02-15T05:14:20.719Z,7.84
2024-02-15T05:16:53.262Z,7.88
2024-02-15T05:19:25.259Z,7.87
2024-02-15T05:21:57.228Z,7.87
2024-02-15T05:24:29.990Z,7.89
2024-02-15T05:27:05.833Z,7.91
2024-02-15T05:29:38.407Z,7.96
2024-02-15T05:32:11.997Z,8.01
2024-02-15T05:34:44.028Z,8.03
2024-02-15T05:37:16.985Z,8.04
2024-02-15T05:39:52.777Z,8.05
2024-02-15T05:42:25.368Z,8.06
2024-02-15T05:44:57.404Z,8.10
2024-02-15T05:47:29.342Z,8.13
2024-02-15T05:50:02.128Z,8.14
2024-02-15T05:52:34.221Z,8.15
2024-02-15T05:55:07.066Z,8.15
2024-02-15T05:57:38.928Z,8.18
2024-02-15T06:00:21.270Z,8.20
2024-02-15T06:02:56.256Z,8.19
2024-02-15T06:05:28.947Z,8.18
2024-02-15T06:08:01.205Z,8.17
2024-02-15T06:10:33.563Z,8.18
2024-02-15T06:13:05.671Z,8.19
2024-02-15T06:15:37.565Z,8.20
2024-02-15T06:18:13.425Z,8.19
2024-02-15T06:20:47.599Z,8.17
2024-02-15T06:23:19.697Z,8.16
2024-02-15T06:25:54.418Z,8.17
2024-02-15T06:28:40.582Z,8.21
2024-02-15T06:31:31.691Z,8.22
2024-02-15T06:34:23.394Z,8.23
2024-02-15T06:37:15.803Z,8.23
2024-02-15T06:39:47.758Z,8.26
2024-02-15T06:42:21.631Z,8.29
2024-02-15T06:44:53.828Z,8.30
2024-02-15T06:47:26.236Z,8.31
2024-02-15T06:49:58.137Z,8.32
2024-02-15T06:52:30.472Z,8.33
2024-02-15T06:55:02.338Z,8.36
2024-02-15T06:57:36.826Z,8.40
2024-02-15T07:00:16.285Z,8.40
2024-02-15T07:02:50.706Z,8.39
2024-02-15T07:05:24.769Z,8.41
2024-02-15T07:07:57.989Z,8.41
2024-02-15T07:10:32.780Z,8.46
2024-02-15T07:13:05.383Z,8.49
2024-02-15T07:15:39.485Z,8.50
2024-02-15T07:18:12.099Z,8.51
2024-02-15T07:20:44.238Z,8.51
2024-02-15T07:23:16.528Z,8.55
2024-02-15T07:25:50.300Z,8.58
2024-02-15T07:28:22.984Z,8.58
2024-02-15T07:30:57.331Z,8.59
2024-02-15T07:33:30.342Z,8.60
2024-02-15T07:36:02.525Z,8.66
2024-02-15T07:38:36.080Z,8.71
2024-02-15T07:41:08.059Z,8.75
2024-02-15T07:43:40.827Z,8.79
2024-02-15T07:46:17.606Z,8.83
2024-02-15T07:48:50.796Z,8.89
2024-02-15T07:51:24.246Z,8.98
2024-02-15T07:53:56.205Z,9.08
2024-02-15T07:56:28.185Z,9.20
2024-02-15T07:59:00.112Z,9.28
2024-02-15T08:01:32.713Z,9.35
2024-02-15T08:04:05.005Z,9.40
2024-02-15T08:06:38.399Z,9.44
2024-02-15T08:09:15.370Z,9.51
2024-02-15T08:11:47.636Z,9.58
2024-02-15T08:14:21.936Z,9.61
2024-02-15T08:16:53.930Z,9.61
2024-02-15T08:19:26.177Z,9.59
2024-02-15T08:21:58.337Z,9.57
2024-02-15T08:24:30.935Z,9.56
2024-02-15T08:27:02.822Z,9.53
2024-02-15T08:29:35.254Z,9.46
2024-02-15T08:32:09.244Z,9.45
2024-02-15T08:34:41.260Z,9.49
2024-02-15T08:37:13.312Z,9.53
2024-02-15T08:39:46.206Z,9.54
2024-02-15T08:42:21.631Z,9.55
2024-02-15T08:44:53.901Z,9.57
2024-02-15T08:47:25.773Z,9.63
2024-02-15T08:49:57.756Z,9.68
2024-02-15T08:52:29.686Z,9.71
2024-02-15T08:55:02.423Z,9.73
2024-02-15T08:57:34.483Z,9.74
2024-02-15T09:00:15.426Z,9.79
2024-02-15T09:02:48.428Z,9.83
2024-02-15T09:05:20.666Z,9.87
2024-02-15T09:07:52.954Z,9.92
2024-02-15T09:10:25.284Z,9.97
2024-02-15T09:12:57.601Z,10.03
2024-02-15T09:15:32.257Z,10.11
2024-02-15T09:18:04.519Z,10.13
2024-02-15T09:20:38.824Z,10.18
2024-02-15T09:23:13.265Z,10.22
2024-02-15T09:25:45.864Z,10.27
2024-02-15T09:28:20.669Z,10.29
2024-02-15T09:30:53.508Z,10.33
2024-02-15T09:33:25.415Z,10.36
2024-02-15T09:35:57.709Z,10.41
2024-02-15T09:38:30.183Z,10.47
2024-02-15T09:41:04.207Z,10.50
2024-02-15T09:43:39.290Z,10.54
2024-02-15T09:46:11.265Z,10.58
2024-02-15T09:48:46.017Z,10.64
2024-02-15T09:51:20.322Z,10.68
2024-02-15T09:53:52.828Z,10.70
2024-02-15T09:56:27.221Z,10.71
2024-02-15T09:58:59.629Z,10.71
2024-02-15T10:01:36.696Z,10.75
2024-02-15T10:04:09.559Z,10.78
2024-02-15T10:06:42.655Z,10.80
2024-02-15T10:09:34.450Z,10.83
2024-02-15T10:12:10.822Z,10.89
2024-02-15T10:14:54.779Z,11.03
2024-02-15T10:17:27.612Z,11.16
2024-02-15T10:20:11.551Z,11.32
2024-02-15T10:22:43.485Z,11.48
2024-02-15T10:25:16.473Z,11.61
2024-02-15T10:27:48.655Z,11.79
2024-02-15T10:30:23.338Z,12.01
2024-02-15T10:32:58.055Z,12.32
2024-02-15T10:35:30.455Z,12.96
2024-02-15T10:38:12.088Z,14.47
2024-02-15T10:40:44.711Z,14.86
2024-02-15T10:43:18.366Z,14.73
2024-02-15T10:45:51.283Z,14.67
2024-02-15T10:48:23.258Z,14.68
2024-02-15T10:50:58.411Z,14.40
2024-02-15T10:53:34.881Z,14.16
2024-02-15T10:56:20.845Z,13.93
2024-02-15T10:58:58.326Z,13.68
2024-02-15T11:01:32.332Z,13.50
2024-02-15T11:04:10.038Z,13.38
2024-02-15T11:06:43.282Z,13.24
2024-02-15T11:09:16.809Z,13.10
2024-02-15T11:11:52.254Z,13.09
2024-02-15T11:14:31.167Z,13.07
2024-02-15T11:17:07.885Z,13.09
2024-02-15T11:19:48.473Z,13.17
2024-02-15T11:22:20.682Z,13.18
2024-02-15T11:24:54.240Z,13.15
2024-02-15T11:27:31.006Z,13.09
2024-02-15T11:30:06.243Z,13.08
2024-02-15T11:32:51.254Z,13.06
2024-02-15T11:35:25.663Z,13.08
2024-02-15T11:38:11.341Z,13.16
2024-02-15T11:41:10.529Z,13.39
2024-02-15T11:44:00.016Z,13.70
2024-02-15T11:46:34.058Z,13.72
2024-02-15T11:49:08.690Z,13.69
2024-02-15T11:51:45.220Z,13.77
2024-02-15T11:54:22.616Z,15.27
2024-02-15T11:57:11.699Z,17.90
2024-02-15T11:59:55.276Z,20.33
2024-02-15T12:02:46.483Z,21.76
2024-02-15T12:05:35.736Z,23.21
2024-02-15T12:08:24.033Z,24.63
2024-02-15T12:11:19.887Z,25.52
2024-02-15T12:14:12.987Z,25.29
2024-02-15T12:17:02.684Z,24.74
2024-02-15T12:19:35.981Z,24.28
2024-02-15T12:22:10.305Z,23.72
2024-02-15T12:24:42.452Z,23.50
2024-02-15T12:27:15.765Z,23.69
2024-02-15T12:29:49.062Z,24.48
2024-02-15T12:32:25.954Z,24.42
2024-02-15T12:35:12.201Z,23.90
2024-02-15T12:37:44.111Z,22.99
2024-02-15T12:40:18.732Z,22.23
2024-02-15T12:42:50.878Z,21.34
2024-02-15T12:45:24.017Z,20.64
2024-02-15T12:47:57.165Z,20.17
2024-02-15T12:50:32.131Z,20.03
2024-02-15T12:53:05.013Z,19.81
2024-02-15T12:55:39.424Z,19.56
2024-02-15T12:58:17.673Z,19.57
2024-02-15T13:00:50.471Z,19.84
2024-02-15T13:03:22.529Z,20.02
2024-02-15T13:05:54.677Z,19.89
2024-02-15T13:08:26.787Z,19.59
2024-02-15T13:10:58.729Z,19.17
2024-02-15T13:13:30.760Z,18.78
2024-02-15T13:16:03.199Z,18.31
2024-02-15T13:18:35.260Z,17.77
2024-02-15T13:21:08.046Z,17.28
2024-02-15T13:23:39.956Z,16.87
2024-02-15T13:26:12.777Z,16.59
2024-02-15T13:28:45.542Z,16.37
2024-02-15T13:31:17.956Z,16.17
2024-02-15T13:33:49.940Z,15.95
2024-02-15T13:36:22.331Z,15.68
2024-02-15T13:38:54.229Z,15.42
2024-02-15T13:41:26.153Z,15.15
2024-02-15T13:43:57.965Z,14.95
2024-02-15T13:46:29.874Z,14.79
2024-02-15T13:49:03.080Z,14.68
2024-02-15T13:51:36.301Z,14.57
2024-02-15T13:54:09.465Z,14.48
2024-02-15T13:56:41.531Z,14.39
2024-02-15T13:59:14.522Z,14.32
2024-02-15T14:01:47.074Z,14.24
2024-02-15T14:04:19.051Z,14.15
2024-02-15T14:06:51.302Z,14.08
2024-02-15T14:09:27.576Z,14.05
2024-02-15T14:11:59.747Z,14.01
2024-02-15T14:14:31.727Z,13.98
2024-02-15T14:17:04.204Z,13.94
2024-02-15T14:19:36.070Z,13.92
2024-02-15T14:22:10.705Z,13.87
2024-02-15T14:24:42.572Z,13.85
2024-02-15T14:27:16.104Z,13.82
2024-02-15T14:30:08.874Z,13.78
2024-02-15T14:33:03.746Z,13.73
2024-02-15T14:35:39.332Z,13.66
2024-02-15T14:38:13.310Z,13.60
2024-02-15T14:40:47.300Z,13.58
2024-02-15T14:43:22.312Z,13.61
2024-02-15T14:45:57.981Z,13.66
2024-02-15T14:48:32.755Z,13.69
2024-02-15T14:51:05.837Z,13.68
2024-02-15T14:53:38.386Z,13.65
2024-02-15T14:56:10.547Z,13.59
2024-02-15T14:58:44.386Z,13.52
2024-02-15T15:01:16.265Z,13.43
2024-02-15T15:03:59.465Z,13.36
2024-02-15T15:06:49.322Z,13.30
2024-02-15T15:09:38.934Z,13.27
2024-02-15T15:12:28.599Z,13.24
2024-02-15T15:15:01.472Z,13.22
2024-02-15T15:17:33.520Z,13.20
2024-02-15T15:20:10.270Z,13.17
2024-02-15T15:22:42.225Z,13.15
2024-02-15T15:25:14.421Z,13.14
2024-02-15T15:27:46.797Z,13.13
2024-02-15T15:30:20.148Z,13.12
2024-02-15T15:32:52.125Z,13.09
2024-02-15T15:35:25.070Z,13.07
2024-02-15T15:37:58.653Z,13.02
2024-02-15T15:40:30.579Z,12.97
2024-02-15T15:43:03.943Z,12.92
2024-02-15T15:45:36.784Z,12.89
2024-02-15T15:48:09.351Z,12.86
2024-02-15T15:50:44.336Z,12.83
2024-02-15T15:53:16.465Z,12.81
2024-02-15T15:55:48.355Z,12.78
2024-02-15T15:58:24.397Z,12.74
2024-02-15T16:00:56.618Z,12.71
2024-02-15T16:03:29.746Z,12.68
2024-02-15T16:06:02.066Z,12.66
2024-02-15T16:08:33.999Z,12.67
2024-02-15T16:11:08.030Z,12.67
2024-02-15T16:13:40.180Z,12.65
2024-02-15T16:16:12.078Z,12.64
2024-02-15T16:18:44.651Z,12.63
2024-02-15T16:21:17.199Z,12.62
2024-02-15T16:23:50.425Z,12.62
2024-02-15T16:26:22.819Z,12.61
2024-02-15T16:28:54.660Z,12.60
2024-02-15T16:31:26.659Z,12.59
2024-02-15T16:33:59.118Z,12.57
2024-02-15T16:36:31.124Z,12.56
2024-02-15T16:39:03.024Z,12.54
2024-02-15T16:41:35.104Z,12.52
2024-02-15T16:44:08.122Z,12.52
2024-02-15T16:46:40.092Z,12.51
2024-02-15T16:49:12.145Z,12.49
2024-02-15T16:51:45.298Z,12.48
2024-02-15T16:54:17.230Z,12.47
2024-02-15T16:56:52.470Z,12.47
2024-02-15T16:59:26.197Z,12.46
2024-02-15T17:01:58.149Z,12.46
2024-02-15T17:04:30.514Z,12.49
2024-02-15T17:07:02.652Z,12.51
2024-02-15T17:09:34.570Z,12.51
2024-02-15T17:12:08.942Z,12.51
2024-02-15T17:14:42.426Z,12.52
2024-02-15T17:17:14.620Z,12.52
2024-02-15T17:19:47.542Z,12.53
2024-02-15T17:22:20.744Z,12.54
2024-02-15T17:24:53.492Z,12.53
2024-02-15T17:27:25.427Z,12.52
2024-02-15T17:29:57.476Z,12.51
2024-02-15T17:32:29.566Z,12.51
2024-02-15T17:35:01.613Z,12.50
2024-02-15T17:37:33.667Z,12.49
2024-02-15T17:40:08.282Z,12.48
2024-02-15T17:42:41.509Z,12.46
2024-02-15T17:45:15.061Z,12.45
2024-02-15T17:47:47.856Z,12.44
2024-02-15T17:50:23.457Z,12.46
2024-02-15T17:52:55.842Z,12.48
2024-02-15T17:55:27.986Z,12.48
2024-02-15T17:58:02.456Z,12.48
2024-02-15T18:00:37.623Z,12.48
2024-02-15T18:03:11.711Z,12.46
2024-02-15T18:05:47.840Z,12.45
2024-02-15T18:08:21.149Z,12.43
2024-02-15T18:10:57.603Z,12.43
2024-02-15T18:13:30.272Z,12.42
2024-02-15T18:16:02.197Z,12.43
2024-02-15T18:18:34.241Z,12.44
2024-02-15T18:21:08.213Z,12.42
2024-02-15T18:23:43.909Z,12.43
2024-02-15T18:26:17.786Z,12.44
2024-02-15T18:28:50.257Z,12.44
2024-02-15T18:31:22.096Z,12.41
2024-02-15T18:33:55.599Z,12.39
2024-02-15T18:36:28.130Z,12.38
2024-02-15T18:39:00.907Z,12.37
2024-02-15T18:41:32.889Z,12.35
2024-02-15T18:44:04.802Z,12.35
2024-02-15T18:46:41.517Z,12.32
2024-02-15T18:49:26.340Z,12.31
2024-02-15T18:52:04.127Z,12.32
2024-02-15T18:54:36.113Z,12.34
2024-02-15T18:57:10.325Z,12.32
2024-02-15T18:59:42.333Z,12.32
2024-02-15T19:02:16.036Z,12.33
2024-02-15T19:04:48.851Z,12.33
2024-02-15T19:07:20.709Z,12.32
2024-02-15T19:09:52.683Z,12.30
2024-02-15T19:12:24.685Z,12.28
2024-02-15T19:14:59.696Z,12.27
2024-02-15T19:17:31.673Z,12.26
2024-02-15T19:20:04.524Z,12.26
2024-02-15T19:22:36.596Z,12.28
2024-02-15T19:25:16.849Z,12.28
2024-02-15T19:27:49.575Z,12.24
2024-02-15T19:30:22.415Z,12.21
2024-02-15T19:32:54.987Z,12.20
2024-02-15T19:35:26.986Z,12.18
2024-02-15T19:37:59.364Z,12.15
2024-02-15T19:40:31.297Z,12.11
2024-02-15T19:43:03.243Z,12.08
2024-02-15T19:45:39.960Z,12.05
2024-02-15T19:48:14.236Z,12.05
2024-02-15T19:50:46.453Z,12.02
2024-02-15T19:53:21.438Z,12.00
2024-02-15T19:55:53.819Z,11.98
2024-02-15T19:58:25.813Z,11.95
2024-02-15T20:00:57.758Z,11.93
2024-02-15T20:03:32.248Z,11.90
2024-02-15T20:06:04.332Z,11.87
2024-02-15T20:08:36.804Z,11.85
2024-02-15T20:11:10.939Z,11.83
2024-02-15T20:13:43.265Z,11.85
2024-02-15T20:16:18.504Z,11.86
2024-02-15T20:18:52.103Z,11.86
2024-02-15T20:21:24.590Z,11.86
2024-02-15T20:23:59.728Z,11.86
2024-02-15T20:26:32.057Z,11.86
2024-02-15T20:29:04.162Z,11.87
2024-02-15T20:31:36.088Z,11.87
2024-02-15T20:34:08.229Z,11.87
2024-02-15T20:36:40.171Z,11.86
2024-02-15T20:39:12.151Z,11.84
2024-02-15T20:41:45.240Z,11.87
2024-02-15T20:44:17.294Z,11.90
2024-02-15T20:46:49.197Z,11.91
2024-02-15T20:49:21.208Z,11.92
2024-02-15T20:51:53.269Z,11.90
2024-02-15T20:54:25.233Z,11.88
2024-02-15T20:56:57.202Z,11.86
2024-02-15T20:59:29.158Z,11.85
2024-02-15T21:02:02.203Z,11.82
2024-02-15T21:04:34.123Z,11.80
2024-02-15T21:07:07.046Z,11.79
2024-02-15T21:09:40.857Z,11.81
2024-02-15T21:12:14.756Z,11.83
2024-02-15T21:14:46.890Z,11.82
2024-02-15T21:17:18.815Z,11.80
2024-02-15T21:19:50.766Z,11.78
2024-02-15T21:22:22.678Z,11.75
2024-02-15T21:24:54.542Z,11.71
2024-02-15T21:27:26.838Z,11.66
2024-02-15T21:30:00.345Z,11.64
2024-02-15T21:32:33.556Z,11.64
2024-02-15T21:35:07.158Z,11.62
2024-02-15T21:37:39.193Z,11.59
2024-02-15T21:40:13.650Z,11.55
2024-02-15T21:42:45.569Z,11.51
2024-02-15T21:45:17.652Z,11.46
2024-02-15T21:47:50.012Z,11.39
2024-02-15T21:50:21.914Z,11.32
2024-02-15T21:52:53.813Z,11.29
2024-02-15T21:55:26.661Z,11.25
2024-02-15T21:57:58.588Z,11.21
2024-02-15T22:09:24.408Z,10.95
2024-02-15T22:11:59.824Z,10.92
2024-02-15T22:14:32.144Z,10.90
2024-02-15T22:17:05.690Z,10.87
2024-02-15T22:19:38.795Z,10.84
2024-02-15T22:22:12.784Z,10.82
2024-02-15T22:24:45.501Z,10.79
2024-02-15T22:27:20.109Z,10.79
2024-02-15T22:29:53.486Z,10.80
2024-02-15T22:32:27.467Z,10.78
2024-02-15T22:34:59.824Z,10.77
2024-02-15T22:37:32.273Z,10.75
2024-02-15T22:40:05.890Z,10.74
2024-02-15T22:42:39.059Z,10.71
2024-02-15T22:45:13.331Z,10.71
2024-02-15T22:47:46.606Z,10.69
2024-02-15T22:50:19.214Z,10.65
2024-02-15T22:52:53.645Z,10.61
2024-02-15T22:55:27.406Z,10.57
2024-02-15T22:58:00.340Z,10.53
2024-02-15T23:00:37.689Z,10.52
2024-02-15T23:03:08.908Z,10.51
2024-02-15T23:05:41.299Z,10.46
2024-02-15T23:08:13.620Z,10.42
2024-02-15T23:10:47.240Z,10.37
2024-02-15T23:13:19.498Z,10.32
2024-02-15T23:15:53.286Z,10.32
2024-02-15T23:18:25.852Z,10.30
2024-02-15T23:20:58.334Z,10.25
2024-02-15T23:23:30.649Z,10.20
2024-02-15T23:26:03.059Z,10.16
2024-02-15T23:28:35.418Z,10.14
2024-02-15T23:31:07.902Z,10.13
2024-02-15T23:33:40.746Z,10.10
2024-02-15T23:36:30.893Z,10.06
2024-02-15T23:39:20.816Z,10.02
2024-02-15T23:41:53.160Z,9.98
2024-02-15T23:44:35.064Z,9.95
2024-02-15T23:47:07.688Z,9.93
2024-02-15T23:49:40.018Z,9.87
2024-02-15T23:52:12.272Z,9.82
2024-02-15T23:54:44.693Z,9.78
2024-02-15T23:57:17.566Z,9.72
2024-02-15T23:59:49.902Z,9.68
